createdAt,value
2023-05-19T00:00:28.961Z,11.27
2023-05-19T00:05:35.740Z,11.53
2023-05-19T00:10:40.484Z,12.23
2023-05-19T00:15:44.761Z,11.60
2023-05-19T00:20:50.015Z,13.07
2023-05-19T00:25:54.293Z,12.63
2023-05-19T00:30:58.011Z,12.77
2023-05-19T00:36:03.872Z,12.83
2023-05-19T00:41:08.333Z,13.53
2023-05-19T00:46:12.606Z,13.07
2023-05-19T00:51:19.020Z,13.27
2023-05-19T00:56:23.037Z,12.67
2023-05-19T01:01:28.089Z,12.93
2023-05-19T01:06:33.520Z,14.03
2023-05-19T01:11:37.319Z,12.43
2023-05-19T01:16:45.249Z,12.07
2023-05-19T01:22:14.573Z,13.93
2023-05-19T01:27:42.784Z,12.27
2023-05-19T01:32:50.263Z,11.70
2023-05-19T01:37:55.949Z,12.63
2023-05-19T01:43:02.652Z,12.20
2023-05-19T01:48:10.805Z,11.60
2023-05-19T01:53:16.163Z,12.47
2023-05-19T01:58:26.223Z,13.20
2023-05-19T02:03:49.738Z,11.73
2023-05-19T02:08:59.791Z,10.90
2023-05-19T02:14:09.110Z,13.20
2023-05-19T02:19:24.014Z,12.13
2023-05-19T02:24:28.196Z,11.40
2023-05-19T02:29:32.041Z,12.00
2023-05-19T02:34:37.684Z,11.40
2023-05-19T02:39:42.159Z,11.90
2023-05-19T02:44:46.404Z,11.93
2023-05-19T02:49:51.663Z,11.43
2023-05-19T02:54:55.661Z,11.60
2023-05-19T02:59:59.669Z,12.27
2023-05-19T03:05:05.408Z,11.43
2023-05-19T03:10:10.674Z,11.20
2023-05-19T03:15:15.202Z,11.90
2023-05-19T03:20:20.675Z,11.53
2023-05-19T03:25:24.779Z,11.73
2023-05-19T03:30:28.744Z,11.50
2023-05-19T03:35:44.601Z,11.60
2023-05-19T03:40:48.964Z,11.37
2023-05-19T03:45:53.787Z,11.07
2023-05-19T03:51:19.016Z,11.30
2023-05-19T03:56:26.768Z,11.40
2023-05-19T04:01:30.957Z,11.30
2023-05-19T04:06:36.604Z,11.40
2023-05-19T04:11:40.877Z,10.63
2023-05-19T04:16:44.853Z,10.30
2023-05-19T04:21:50.074Z,11.53
2023-05-19T04:26:54.496Z,11.10
2023-05-19T04:31:58.630Z,10.80
2023-05-19T04:37:04.819Z,10.80
2023-05-19T04:42:09.211Z,10.73
2023-05-19T04:47:15.227Z,10.80
2023-05-19T04:52:22.083Z,10.67
2023-05-19T04:57:27.412Z,10.37
2023-05-19T05:02:32.339Z,10.47
2023-05-19T05:07:38.498Z,11.60
2023-05-19T05:12:43.689Z,10.30
2023-05-19T05:17:48.099Z,10.03
2023-05-19T05:22:54.772Z,9.30
2023-05-19T05:28:05.365Z,9.07
2023-05-19T05:33:12.115Z,8.60
2023-05-19T05:38:19.552Z,9.00
2023-05-19T05:43:23.671Z,8.57
2023-05-19T05:48:33.838Z,9.10
2023-05-19T05:53:44.167Z,8.77
2023-05-19T05:58:49.593Z,9.27
2023-05-19T06:03:53.497Z,9.17
2023-05-19T06:09:01.542Z,9.97
2023-05-19T06:14:06.040Z,9.07
2023-05-19T06:19:25.567Z,8.73
2023-05-19T06:24:31.072Z,7.90
2023-05-19T06:29:35.060Z,8.63
2023-05-19T06:34:41.886Z,10.05
2023-05-19T06:39:47.724Z,7.88
2023-05-19T06:44:52.712Z,8.70
2023-05-19T06:49:56.933Z,8.77
2023-05-19T06:55:05.923Z,8.30
2023-05-19T07:00:15.874Z,7.43
2023-05-19T07:05:24.869Z,7.35
2023-05-19T07:10:34.441Z,8.15
2023-05-19T07:15:39.776Z,8.10
2023-05-19T07:20:43.747Z,7.65
2023-05-19T07:25:49.135Z,8.23
2023-05-19T07:30:53.226Z,8.30
2023-05-19T07:35:56.803Z,8.27
2023-05-19T07:41:02.119Z,8.32
2023-05-19T07:46:06.513Z,9.07
2023-05-19T07:51:10.848Z,8.20
2023-05-19T07:56:16.085Z,8.90
2023-05-19T08:01:19.947Z,9.13
2023-05-19T08:06:25.384Z,8.10
2023-05-19T08:11:30.508Z,8.10
2023-05-19T08:16:34.331Z,9.07
2023-05-19T08:21:37.816Z,9.98
2023-05-19T08:26:42.920Z,9.43
2023-05-19T08:31:46.552Z,9.18
2023-05-19T08:36:50.569Z,8.68
2023-05-19T08:41:55.744Z,9.93
2023-05-19T08:47:05.175Z,9.45
2023-05-19T08:52:16.423Z,9.25
2023-05-19T08:57:22.625Z,8.77
2023-05-19T09:02:26.670Z,8.07
2023-05-19T09:07:34.867Z,8.10
2023-05-19T09:12:39.802Z,8.18
2023-05-19T09:17:44.883Z,7.07
2023-05-19T09:22:48.476Z,7.15
2023-05-19T09:27:55.841Z,6.97
2023-05-19T09:32:59.448Z,6.65
2023-05-19T09:38:03.022Z,6.65
2023-05-19T09:43:09.799Z,6.43
2023-05-19T09:48:14.040Z,6.15
2023-05-19T09:53:19.034Z,6.22
2023-05-19T09:58:24.378Z,5.75
2023-05-19T10:03:28.168Z,5.97
2023-05-19T10:08:32.785Z,6.13
2023-05-19T10:13:39.432Z,6.38
2023-05-19T10:18:43.452Z,6.25
2023-05-19T10:23:47.556Z,6.30
2023-05-19T10:28:52.784Z,5.75
2023-05-19T10:34:15.401Z,6.38
2023-05-19T10:39:23.298Z,6.30
2023-05-19T10:44:41.002Z,5.80
2023-05-19T10:49:44.613Z,6.07
2023-05-19T10:54:48.051Z,6.13
2023-05-19T10:59:53.066Z,5.80
2023-05-19T11:04:58.658Z,5.70
2023-05-19T11:10:07.307Z,5.70
2023-05-19T11:15:14.700Z,6.05
2023-05-19T11:20:27.113Z,6.13
2023-05-19T11:25:43.806Z,6.05
2023-05-19T11:30:51.888Z,4.78
2023-05-19T11:35:58.251Z,5.20
2023-05-19T11:41:02.238Z,5.70
2023-05-19T11:46:07.178Z,5.50
2023-05-19T11:51:11.073Z,5.30
2023-05-19T11:56:15.328Z,5.00
2023-05-19T12:01:20.237Z,5.43
2023-05-19T12:06:23.832Z,5.55
2023-05-19T12:11:30.188Z,5.60
2023-05-19T12:16:38.196Z,4.93
2023-05-19T12:21:42.654Z,5.18
2023-05-19T12:26:46.149Z,5.30
2023-05-19T12:31:51.266Z,5.22
2023-05-19T12:36:54.737Z,5.85
2023-05-19T12:42:03.392Z,5.75
2023-05-19T12:47:08.350Z,4.55
2023-05-19T12:52:15.254Z,4.97
2023-05-19T12:57:18.711Z,4.63
2023-05-19T13:02:26.064Z,5.15
2023-05-19T13:07:29.970Z,4.90
2023-05-19T13:12:33.613Z,4.90
2023-05-19T13:17:38.663Z,5.35
2023-05-19T13:22:42.268Z,5.45
2023-05-19T13:27:46.400Z,5.63
2023-05-19T13:32:52.627Z,5.47
2023-05-19T13:37:56.430Z,5.22
2023-05-19T13:43:00.216Z,5.18
2023-05-19T13:48:07.489Z,5.70
2023-05-19T13:53:11.690Z,5.70
2023-05-19T13:58:17.085Z,5.88
2023-05-19T14:03:22.554Z,5.50
2023-05-19T14:08:26.262Z,5.30
2023-05-19T14:13:35.194Z,5.32
2023-05-19T14:18:42.154Z,5.20
2023-05-19T14:23:46.469Z,4.95
2023-05-19T14:28:49.997Z,5.50
2023-05-19T14:33:55.061Z,5.07
2023-05-19T14:38:58.874Z,5.13
2023-05-19T14:44:03.290Z,5.28
2023-05-19T14:49:08.156Z,5.00
2023-05-19T14:54:11.972Z,4.88
2023-05-19T14:59:15.819Z,5.30
2023-05-19T15:04:21.163Z,5.03
2023-05-19T15:09:24.948Z,4.90
2023-05-19T15:14:30.522Z,5.90
2023-05-19T15:19:36.310Z,5.10
2023-05-19T15:24:41.249Z,5.47
2023-05-19T15:29:45.082Z,5.15
2023-05-19T15:34:50.535Z,5.40
2023-05-19T15:39:55.129Z,5.35
2023-05-19T15:44:59.139Z,5.55
2023-05-19T15:50:05.088Z,4.90
2023-05-19T15:55:10.386Z,5.30
2023-05-19T16:00:15.356Z,5.20
2023-05-19T16:05:21.300Z,4.90
2023-05-19T16:10:25.780Z,5.13
2023-05-19T16:15:30.882Z,5.53
2023-05-19T16:20:37.111Z,5.10
2023-05-19T16:25:41.831Z,5.50
2023-05-19T16:30:46.794Z,5.03
2023-05-19T16:36:07.408Z,5.28
2023-05-19T16:41:19.649Z,5.45
2023-05-19T16:47:36.285Z,5.20
2023-05-19T16:53:26.463Z,4.90
2023-05-19T17:04:40.011Z,4.80
2023-05-19T17:09:45.724Z,4.60
2023-05-19T17:14:50.485Z,4.90
2023-05-19T17:19:54.402Z,5.03
2023-05-19T17:24:59.305Z,5.70
2023-05-19T17:30:03.546Z,5.72
2023-05-19T17:35:09.704Z,5.47
2023-05-19T17:40:15.341Z,5.90
2023-05-19T17:45:19.024Z,5.30
2023-05-19T17:50:22.548Z,5.38
2023-05-19T17:55:30.459Z,5.75
2023-05-19T18:00:34.562Z,5.70
2023-05-19T18:05:40.162Z,5.95
2023-05-19T18:10:46.181Z,5.75
2023-05-19T18:15:49.981Z,6.07
2023-05-19T18:20:54.906Z,5.97
2023-05-19T18:25:59.984Z,6.13
2023-05-19T18:31:05.958Z,5.78
2023-05-19T18:36:10.107Z,5.75
2023-05-19T18:41:15.738Z,5.50
2023-05-19T18:46:19.668Z,5.57
2023-05-19T18:51:23.725Z,5.68
2023-05-19T18:56:31.138Z,5.93
2023-05-19T19:01:35.126Z,5.00
2023-05-19T19:06:38.687Z,5.20
2023-05-19T19:11:43.618Z,5.45
2023-05-19T19:16:47.172Z,5.15
2023-05-19T19:21:50.765Z,5.05
2023-05-19T19:26:57.017Z,5.13
2023-05-19T19:32:00.582Z,5.20
2023-05-19T19:37:05.330Z,5.55
2023-05-19T19:42:10.341Z,5.00
2023-05-19T19:47:14.172Z,5.30
2023-05-19T19:52:18.765Z,5.13
2023-05-19T19:57:24.083Z,5.00
2023-05-19T20:02:27.861Z,5.32
2023-05-19T20:07:32.272Z,5.50
2023-05-19T20:12:37.593Z,5.50
2023-05-19T20:17:41.114Z,5.10
2023-05-19T20:22:46.159Z,6.43
2023-05-19T20:27:51.427Z,5.72
2023-05-19T20:32:55.387Z,5.80
2023-05-19T20:37:58.963Z,5.67
2023-05-19T20:43:03.915Z,5.50
2023-05-19T20:48:07.763Z,5.80
2023-05-19T20:53:11.393Z,5.78
2023-05-19T20:58:16.611Z,5.95
2023-05-19T21:03:23.311Z,5.50
2023-05-19T21:08:27.594Z,5.82
2023-05-19T21:13:33.936Z,5.93
2023-05-19T21:18:37.479Z,5.95
2023-05-19T21:23:41.132Z,6.03
2023-05-19T21:28:46.369Z,5.88
2023-05-19T21:33:50.123Z,5.93
2023-05-19T21:38:54.460Z,5.90
2023-05-19T21:43:59.606Z,5.90
2023-05-19T21:49:03.041Z,6.35
2023-05-19T21:54:06.880Z,6.53
2023-05-19T21:59:12.185Z,5.80
2023-05-19T22:04:17.875Z,6.10
2023-05-19T22:09:22.108Z,6.47
2023-05-19T22:14:26.971Z,6.20
2023-05-19T22:19:30.470Z,5.93
2023-05-19T22:24:34.325Z,6.18
2023-05-19T22:29:39.865Z,6.00
2023-05-19T22:34:43.675Z,6.20
2023-05-19T22:39:47.565Z,6.15
2023-05-19T22:44:52.937Z,6.45
2023-05-19T22:49:57.239Z,5.97
2023-05-19T22:55:01.194Z,5.97
2023-05-19T23:00:09.906Z,5.87
2023-05-19T23:05:13.484Z,6.13
2023-05-19T23:10:17.384Z,6.37
2023-05-19T23:15:22.725Z,5.97
2023-05-19T23:20:26.322Z,6.60
2023-05-19T23:25:29.893Z,6.03
2023-05-19T23:30:38.194Z,6.90
2023-05-19T23:35:41.946Z,6.67
2023-05-19T23:40:45.528Z,7.05
2023-05-19T23:45:50.716Z,7.33
2023-05-19T23:50:54.448Z,6.90
2023-05-19T23:55:58.810Z,7.00
